Time;durP1;ratioP1;P1;durP2;ratioP2;P2;SDS_P1;SDS_P2;PMS_P1;PMS_P2;Temp;Humidity;BMP_temperature;BMP_pressure;BME280_temperature;BME280_humidity;BME280_pressure;Samples;Min_cycle;Max_cycle;Signal;HPM_P1;HPM_P2
2023/03/16 00:02:18;;;;;;;8.07;4.45;;;;;;;;;;5000276;28;20039;-87
2023/03/16 00:04:46;;;;;;;9.93;4.53;;;;;;;;;;4999290;28;20052;-87
2023/03/16 00:07:12;;;;;;;9.60;4.57;;;;;;;;;;4998949;28;20041;-89
2023/03/16 00:09:42;;;;;;;8.10;4.50;;;;;;;;;;5000326;28;20049;-87
2023/03/16 00:12:14;;;;;;;10.10;4.72;;;;;;;;;;4998890;28;20420;-87
2023/03/16 00:14:58;;;;;;;9.50;3.90;;;;;;;;;;4999858;28;20042;-87
2023/03/16 00:17:25;;;;;;;7.40;4.15;;;;;;;;;;5004456;28;20038;-87
2023/03/16 00:19:55;;;;;;;7.20;4.13;;;;;;;;;;5039081;28;20030;-87
2023/03/16 00:22:25;;;;;;;8.38;4.03;;;;;;;;;;5037845;28;20155;-87
2023/03/16 00:24:54;;;;;;;8.68;4.50;;;;;;;;;;5039358;28;20423;-87
2023/03/16 00:27:21;;;;;;;7.30;4.40;;;;;;;;;;5039084;28;20033;-87
2023/03/16 00:29:48;;;;;;;8.65;4.28;;;;;;;;;;5038939;28;20021;-87
2023/03/16 00:32:15;;;;;;;7.80;3.80;;;;;;;;;;5038805;28;20116;-87
2023/03/16 00:34:41;;;;;;;7.03;4.05;;;;;;;;;;5037387;28;20144;-87
2023/03/16 00:37:07;;;;;;;7.97;4.30;;;;;;;;;;5037433;28;20037;-87
2023/03/16 00:39:34;;;;;;;8.60;4.20;;;;;;;;;;5038719;28;20032;-87
2023/03/16 00:42:01;;;;;;;10.13;4.70;;;;;;;;;;5038503;28;20418;-86
2023/03/16 00:47:53;;;;;;;9.15;4.78;;;;;;;;;;5038534;28;20095;-86
2023/03/16 00:50:21;;;;;;;9.38;4.60;;;;;;;;;;5038413;28;20030;-86
2023/03/16 00:52:47;;;;;;;8.23;4.50;;;;;;;;;;5038054;28;20026;-87
2023/03/16 00:55:13;;;;;;;8.93;4.75;;;;;;;;;;5038552;28;20404;-87
2023/03/16 00:57:40;;;;;;;11.43;4.88;;;;;;;;;;5037238;28;20482;-86
2023/03/16 01:00:11;;;;;;;9.63;4.75;;;;;;;;;;5038437;28;20099;-85
2023/03/16 01:02:37;;;;;;;8.70;5.72;;;;;;;;;;5038275;28;20026;-85
2023/03/16 01:05:04;;;;;;;10.25;6.00;;;;;;;;;;5038373;28;20063;-86
2023/03/16 01:07:35;;;;;;;9.02;5.22;;;;;;;;;;5038079;28;20473;-86
2023/03/16 01:10:01;;;;;;;9.57;4.50;;;;;;;;;;5038503;28;20068;-86
2023/03/16 01:12:27;;;;;;;8.13;5.55;;;;;;;;;;5037849;28;20033;-87
2023/03/16 01:14:54;;;;;;;8.85;4.40;;;;;;;;;;5037831;28;20057;-86
2023/03/16 01:17:21;;;;;;;8.85;4.72;;;;;;;;;;5037667;28;20025;-86
2023/03/16 01:19:47;;;;;;;7.97;4.50;;;;;;;;;;5038314;28;20067;-86
2023/03/16 01:22:14;;;;;;;7.05;4.30;;;;;;;;;;5038130;28;20030;-86
2023/03/16 01:24:41;;;;;;;6.53;3.78;;;;;;;;;;5036820;28;20044;-88
2023/03/16 01:27:07;;;;;;;8.00;4.13;;;;;;;;;;5036911;28;20033;-87
2023/03/16 01:35:40;;;;;;;10.27;4.90;;;;;;;;;;5038012;28;20113;-88
2023/03/16 01:38:06;;;;;;;12.60;5.85;;;;;;;;;;5037564;28;20074;-87
2023/03/16 01:40:32;;;;;;;9.88;4.95;;;;;;;;;;5037730;28;20030;-88
2023/03/16 01:46:05;;;;;;;10.20;5.10;;;;;;;;;;5037853;28;20040;-87
2023/03/16 01:48:51;;;;;;;11.20;5.93;;;;;;;;;;5037925;28;20029;-87
2023/03/16 01:51:22;;;;;;;12.15;5.97;;;;;;;;;;5036486;28;20088;-87
2023/03/16 01:53:51;;;;;;;11.48;5.00;;;;;;;;;;5037926;28;20025;-87
2023/03/16 01:56:22;;;;;;;13.15;5.75;;;;;;;;;;5036516;28;20455;-88
2023/03/16 01:59:09;;;;;;;8.98;4.55;;;;;;;;;;5037250;28;20347;-86
2023/03/16 02:01:35;;;;;;;9.45;4.90;;;;;;;;;;5037673;28;20101;-87
2023/03/16 02:04:13;;;;;;;9.20;4.53;;;;;;;;;;5036281;28;20030;-88
2023/03/16 02:06:39;;;;;;;6.93;4.00;;;;;;;;;;5037225;28;20041;-88
2023/03/16 02:09:06;;;;;;;8.60;4.90;;;;;;;;;;5037263;28;20025;-87
2023/03/16 02:11:33;;;;;;;9.93;4.63;;;;;;;;;;5035892;28;20072;-88
2023/03/16 02:17:03;;;;;;;11.70;4.82;;;;;;;;;;5037243;28;20040;-88
2023/03/16 02:19:51;;;;;;;11.25;5.53;;;;;;;;;;5037235;28;20041;-87
2023/03/16 02:22:17;;;;;;;9.10;4.80;;;;;;;;;;5023550;28;20033;-87
2023/03/16 02:24:43;;;;;;;8.23;4.60;;;;;;;;;;5037050;28;20017;-88
2023/03/16 02:27:14;;;;;;;9.35;4.78;;;;;;;;;;5037336;28;20083;-88
2023/03/16 02:38:50;;;;;;;7.65;4.45;;;;;;;;;;5036855;28;20033;-85
2023/03/16 02:41:18;;;;;;;10.45;4.97;;;;;;;;;;5036725;28;20433;-86
2023/03/16 02:43:56;;;;;;;9.10;5.20;;;;;;;;;;5035854;28;20204;-85
2023/03/16 02:46:25;;;;;;;12.20;5.82;;;;;;;;;;5022316;28;20451;-85
2023/03/16 02:49:03;;;;;;;8.82;5.10;;;;;;;;;;5036680;28;20415;-85
2023/03/16 02:51:31;;;;;;;8.52;5.13;;;;;;;;;;5036777;28;20314;-85
2023/03/16 02:53:57;;;;;;;11.80;5.10;;;;;;;;;;5036699;28;20156;-85
2023/03/16 02:56:23;;;;;;;11.85;5.43;;;;;;;;;;5036539;28;20083;-85
2023/03/16 03:01:52;;;;;;;10.38;4.90;;;;;;;;;;5017425;28;20048;-85
2023/03/16 03:04:19;;;;;;;11.32;4.55;;;;;;;;;;5019227;28;20429;-85
2023/03/16 03:06:45;;;;;;;8.27;4.85;;;;;;;;;;5036013;28;20408;-88
2023/03/16 03:09:11;;;;;;;11.75;5.25;;;;;;;;;;5035771;28;20122;-87
2023/03/16 03:11:37;;;;;;;10.23;5.28;;;;;;;;;;5038023;28;20034;-87
2023/03/16 03:14:04;;;;;;;12.50;5.25;;;;;;;;;;5040689;28;20036;-87
2023/03/16 03:16:30;;;;;;;9.88;5.25;;;;;;;;;;5040458;28;20025;-87
2023/03/16 03:18:57;;;;;;;12.57;5.85;;;;;;;;;;5040166;28;20037;-87
2023/03/16 03:21:23;;;;;;;12.73;6.32;;;;;;;;;;5040260;28;20029;-87
2023/03/16 03:23:49;;;;;;;13.68;8.02;;;;;;;;;;5039502;28;20112;-86
2023/03/16 03:26:16;;;;;;;10.68;5.85;;;;;;;;;;5038769;28;20075;-87
2023/03/16 03:28:43;;;;;;;12.07;5.90;;;;;;;;;;5040235;28;20029;-87
2023/03/16 03:31:20;;;;;;;10.70;6.15;;;;;;;;;;5039650;28;20029;-87
2023/03/16 03:33:48;;;;;;;14.13;8.43;;;;;;;;;;5020178;28;20030;-89
2023/03/16 03:36:14;;;;;;;13.27;10.07;;;;;;;;;;5020446;28;20026;-89
2023/03/16 03:38:41;;;;;;;15.13;9.35;;;;;;;;;;5026959;28;20033;-87
2023/03/16 03:41:07;;;;;;;17.05;10.88;;;;;;;;;;5039824;28;20312;-87
2023/03/16 03:43:51;;;;;;;15.65;9.88;;;;;;;;;;5039970;28;20030;-87
2023/03/16 03:46:17;;;;;;;14.07;6.97;;;;;;;;;;5039931;28;20112;-87
2023/03/16 03:48:43;;;;;;;14.90;7.85;;;;;;;;;;5039613;28;20447;-87
2023/03/16 03:51:09;;;;;;;14.00;9.43;;;;;;;;;;5039465;28;20021;-87
2023/03/16 03:53:36;;;;;;;15.68;7.05;;;;;;;;;;5039375;28;20033;-86
2023/03/16 03:56:02;;;;;;;12.05;6.47;;;;;;;;;;5038394;28;20065;-86
2023/03/16 03:58:28;;;;;;;13.40;8.73;;;;;;;;;;5039340;28;20024;-87
2023/03/16 04:00:54;;;;;;;14.18;7.72;;;;;;;;;;5039705;28;20052;-87
2023/03/16 04:03:20;;;;;;;11.45;6.40;;;;;;;;;;5038689;28;20037;-87
2023/03/16 04:05:46;;;;;;;12.68;8.85;;;;;;;;;;5039389;28;20063;-87
2023/03/16 04:08:12;;;;;;;12.18;6.80;;;;;;;;;;5039261;28;20304;-87
2023/03/16 04:10:38;;;;;;;11.95;7.40;;;;;;;;;;5039482;28;20022;-86
2023/03/16 04:13:04;;;;;;;16.38;8.98;;;;;;;;;;5038769;28;20026;-87
2023/03/16 04:15:31;;;;;;;10.07;6.90;;;;;;;;;;5039255;28;20034;-87
2023/03/16 04:17:58;;;;;;;11.02;6.22;;;;;;;;;;5037542;28;20033;-87
2023/03/16 04:20:24;;;;;;;13.07;6.40;;;;;;;;;;5039254;28;20025;-87
2023/03/16 04:22:57;;;;;;;11.40;6.13;;;;;;;;;;5037426;28;20022;-87
2023/03/16 04:25:24;;;;;;;11.38;6.35;;;;;;;;;;5036748;28;20026;-86
2023/03/16 04:27:50;;;;;;;10.82;6.90;;;;;;;;;;5029490;28;20416;-86
2023/03/16 04:30:53;;;;;;;8.88;6.00;;;;;;;;;;5038817;28;20022;-88
2023/03/16 04:33:20;;;;;;;8.65;5.28;;;;;;;;;;5038873;28;20025;-88
2023/03/16 04:35:46;;;;;;;12.23;5.70;;;;;;;;;;5025916;28;20026;-88
2023/03/16 04:38:13;;;;;;;9.57;5.43;;;;;;;;;;5017603;28;20455;-87
2023/03/16 04:40:39;;;;;;;8.13;5.68;;;;;;;;;;5019208;28;20025;-87
2023/03/16 04:43:05;;;;;;;8.48;5.38;;;;;;;;;;5020404;28;20029;-90
2023/03/16 04:48:34;;;;;;;11.95;7.55;;;;;;;;;;5038983;28;20328;-92
2023/03/16 04:51:02;;;;;;;12.80;7.40;;;;;;;;;;5038971;28;20041;-92
2023/03/16 04:53:28;;;;;;;23.23;12.63;;;;;;;;;;5038896;28;20025;-94
2023/03/16 04:55:55;;;;;;;46.47;23.80;;;;;;;;;;5038667;28;20068;-92
2023/03/16 04:58:21;;;;;;;26.90;13.73;;;;;;;;;;5038908;28;20029;-93
2023/03/16 05:00:47;;;;;;;29.73;17.40;;;;;;;;;;5038487;28;20063;-92
2023/03/16 05:03:15;;;;;;;18.88;10.75;;;;;;;;;;5038602;28;20024;-92
2023/03/16 05:05:41;;;;;;;15.23;8.98;;;;;;;;;;5038500;28;20017;-92
2023/03/16 05:08:09;;;;;;;17.42;8.45;;;;;;;;;;5038550;28;20025;-92
2023/03/16 05:10:36;;;;;;;11.45;7.30;;;;;;;;;;5037348;28;20033;-92
2023/03/16 05:13:02;;;;;;;13.68;7.88;;;;;;;;;;5038005;28;20033;-92
2023/03/16 05:18:32;;;;;;;13.02;7.53;;;;;;;;;;5034286;28;20056;-92
2023/03/16 05:20:58;;;;;;;13.65;6.85;;;;;;;;;;5040043;28;20033;-93
2023/03/16 05:23:24;;;;;;;12.93;7.10;;;;;;;;;;5058075;28;20033;-92
2023/03/16 05:25:50;;;;;;;14.55;6.97;;;;;;;;;;5056946;28;20029;-92
2023/03/16 05:28:16;;;;;;;19.63;8.18;;;;;;;;;;5058091;28;20021;-92
2023/03/16 05:33:47;;;;;;;14.18;6.80;;;;;;;;;;5057385;28;20430;-92
2023/03/16 05:36:13;;;;;;;13.52;7.28;;;;;;;;;;5056832;28;20028;-93
2023/03/16 05:38:39;;;;;;;13.77;6.68;;;;;;;;;;5056767;28;20061;-93
2023/03/16 05:41:05;;;;;;;15.77;7.65;;;;;;;;;;5047663;28;20041;-93
2023/03/16 05:46:35;;;;;;;14.48;6.82;;;;;;;;;;5035813;28;20052;-92
2023/03/16 05:49:01;;;;;;;12.60;6.68;;;;;;;;;;5038127;28;20029;-92
2023/03/16 05:51:27;;;;;;;20.70;7.72;;;;;;;;;;5044130;28;20031;-92
2023/03/16 05:53:58;;;;;;;10.02;6.30;;;;;;;;;;5037688;28;20029;-92
2023/03/16 05:56:25;;;;;;;18.48;7.50;;;;;;;;;;5037877;28;20411;-92
2023/03/16 06:01:54;;;;;;;17.13;6.90;;;;;;;;;;5037991;28;20032;-92
2023/03/16 06:04:20;;;;;;;14.65;7.38;;;;;;;;;;5036499;28;20025;-92
2023/03/16 06:06:46;;;;;;;17.13;8.27;;;;;;;;;;5038075;28;20036;-93
2023/03/16 06:09:12;;;;;;;12.32;7.30;;;;;;;;;;5057633;28;20025;-92
2023/03/16 06:11:38;;;;;;;17.13;8.32;;;;;;;;;;5057401;28;20119;-92
2023/03/16 06:14:05;;;;;;;15.95;7.35;;;;;;;;;;5056291;28;20033;-92
2023/03/16 06:16:31;;;;;;;13.38;6.65;;;;;;;;;;5056308;28;20028;-92
2023/03/16 06:18:57;;;;;;;15.85;6.22;;;;;;;;;;5056198;28;20037;-92
2023/03/16 06:21:23;;;;;;;12.77;5.93;;;;;;;;;;5057564;28;20101;-93
2023/03/16 06:23:49;;;;;;;13.18;6.32;;;;;;;;;;5056341;28;20160;-93
2023/03/16 06:26:15;;;;;;;16.08;6.65;;;;;;;;;;5057310;28;20024;-93
2023/03/16 06:28:42;;;;;;;13.52;7.03;;;;;;;;;;5057100;28;20075;-93
2023/03/16 06:31:08;;;;;;;13.20;6.15;;;;;;;;;;5057169;28;20028;-92
2023/03/16 06:33:34;;;;;;;13.90;6.88;;;;;;;;;;5032094;28;20026;-91
2023/03/16 06:36:00;;;;;;;13.93;6.82;;;;;;;;;;5035636;28;20096;-93
2023/03/16 06:38:26;;;;;;;15.57;7.10;;;;;;;;;;5036322;28;20067;-92
2023/03/16 06:40:53;;;;;;;12.18;6.55;;;;;;;;;;5037320;28;20064;-93
2023/03/16 06:43:20;;;;;;;12.82;6.57;;;;;;;;;;5032634;28;20029;-92
2023/03/16 06:45:46;;;;;;;18.75;8.85;;;;;;;;;;5026538;28;20025;-93
2023/03/16 06:48:12;;;;;;;20.00;8.90;;;;;;;;;;5031182;28;20036;-92
2023/03/16 06:50:38;;;;;;;15.60;6.60;;;;;;;;;;5029421;28;20125;-93
2023/03/16 06:53:06;;;;;;;16.42;7.25;;;;;;;;;;5040033;28;20023;-93
2023/03/16 06:58:20;;;;;;;17.55;7.30;;;;;;;;;;5041498;28;20057;-94
2023/03/16 07:00:46;;;;;;;12.68;6.75;;;;;;;;;;5040856;28;20048;-93
2023/03/16 07:03:12;;;;;;;12.80;6.13;;;;;;;;;;5039786;28;20075;-94
2023/03/16 07:05:38;;;;;;;14.13;5.93;;;;;;;;;;5040791;28;20029;-94
2023/03/16 07:08:04;;;;;;;13.38;6.15;;;;;;;;;;5039634;28;20122;-94
2023/03/16 07:10:31;;;;;;;11.98;6.10;;;;;;;;;;5040711;28;20049;-93
2023/03/16 07:12:57;;;;;;;15.77;5.85;;;;;;;;;;5040772;28;20032;-92
2023/03/16 07:15:25;;;;;;;12.30;6.20;;;;;;;;;;5040432;28;20053;-93
2023/03/16 07:17:51;;;;;;;12.00;5.95;;;;;;;;;;5039379;28;20048;-94
2023/03/16 07:20:17;;;;;;;11.60;5.75;;;;;;;;;;5040792;28;20044;-94
2023/03/16 07:22:43;;;;;;;15.05;6.47;;;;;;;;;;5039470;28;20095;-94
2023/03/16 07:25:10;;;;;;;12.50;6.38;;;;;;;;;;5039404;28;20049;-94
2023/03/16 07:27:37;;;;;;;13.48;6.07;;;;;;;;;;5040350;28;20041;-94
2023/03/16 07:30:04;;;;;;;11.45;6.05;;;;;;;;;;5039993;28;20420;-93
2023/03/16 07:32:31;;;;;;;11.65;5.93;;;;;;;;;;5039111;28;20026;-94
2023/03/16 07:34:57;;;;;;;13.13;5.05;;;;;;;;;;5040300;28;20104;-91
2023/03/16 07:37:24;;;;;;;12.20;5.22;;;;;;;;;;5038988;28;20029;-91
2023/03/16 07:39:50;;;;;;;10.35;4.75;;;;;;;;;;5039957;28;20030;-92
2023/03/16 07:42:16;;;;;;;16.75;6.88;;;;;;;;;;5039242;28;20027;-92
2023/03/16 07:44:43;;;;;;;11.45;4.47;;;;;;;;;;5038931;28;20057;-90
2023/03/16 07:47:11;;;;;;;13.20;5.88;;;;;;;;;;5038818;28;20037;-93
2023/03/16 07:49:40;;;;;;;13.32;5.45;;;;;;;;;;5040007;28;20051;-91
2023/03/16 07:52:06;;;;;;;13.65;5.28;;;;;;;;;;5044581;28;20095;-92
2023/03/16 07:54:32;;;;;;;16.73;6.90;;;;;;;;;;5046494;28;20344;-91
2023/03/16 07:56:58;;;;;;;13.80;5.22;;;;;;;;;;5038910;28;20029;-91
2023/03/16 07:59:24;;;;;;;18.67;8.15;;;;;;;;;;5039690;28;20040;-91
2023/03/16 08:01:50;;;;;;;10.77;5.53;;;;;;;;;;5039714;28;20036;-93
2023/03/16 08:04:16;;;;;;;11.25;5.28;;;;;;;;;;5038661;28;20021;-92
2023/03/16 08:06:42;;;;;;;11.73;5.15;;;;;;;;;;5039333;28;20355;-91
2023/03/16 08:09:09;;;;;;;7.03;4.60;;;;;;;;;;5039653;28;20037;-91
2023/03/16 08:11:35;;;;;;;11.77;4.78;;;;;;;;;;5039640;28;20030;-93
2023/03/16 08:14:01;;;;;;;10.55;4.78;;;;;;;;;;5038455;28;20073;-92
2023/03/16 08:16:27;;;;;;;12.00;5.18;;;;;;;;;;5038349;28;20021;-92
2023/03/16 08:18:55;;;;;;;8.48;4.80;;;;;;;;;;5039122;28;20434;-93
2023/03/16 08:21:22;;;;;;;11.68;5.22;;;;;;;;;;5038499;28;20021;-93
2023/03/16 08:23:49;;;;;;;9.52;4.65;;;;;;;;;;5039318;28;20029;-93
2023/03/16 08:26:19;;;;;;;10.77;4.40;;;;;;;;;;5039357;28;20037;-94
2023/03/16 08:28:46;;;;;;;12.02;4.80;;;;;;;;;;5039248;28;20030;-92
2023/03/16 08:31:15;;;;;;;11.18;4.70;;;;;;;;;;5039005;28;20045;-91
2023/03/16 08:33:48;;;;;;;9.98;4.32;;;;;;;;;;5039021;28;20030;-92
2023/03/16 08:36:15;;;;;;;12.02;5.00;;;;;;;;;;5038112;28;20427;-92
2023/03/16 08:38:45;;;;;;;11.75;4.53;;;;;;;;;;5038845;28;20408;-91
2023/03/16 08:41:12;;;;;;;20.27;5.10;;;;;;;;;;5037902;28;20033;-91
2023/03/16 08:43:39;;;;;;;9.57;4.00;;;;;;;;;;5037345;28;20404;-93
2023/03/16 08:46:05;;;;;;;12.73;4.40;;;;;;;;;;5038640;28;20104;-92
2023/03/16 08:48:35;;;;;;;9.45;4.60;;;;;;;;;;5037727;28;20028;-91
2023/03/16 08:51:04;;;;;;;10.32;4.03;;;;;;;;;;5038879;28;20096;-92
2023/03/16 08:53:30;;;;;;;8.05;3.67;;;;;;;;;;5038569;28;20022;-91
2023/03/16 08:56:13;;;;;;;8.82;4.60;;;;;;;;;;5037652;28;20029;-91
2023/03/16 08:58:40;;;;;;;;;;;;;;;;;;5039235;28;20021;-92
2023/03/16 09:01:08;;;;;;;9.77;5.35;;;;;;;;;;5038738;28;19913;-91
2023/03/16 09:03:34;;;;;;;9.43;4.38;;;;;;;;;;5038476;28;20443;-92
2023/03/16 09:06:08;;;;;;;12.88;5.00;;;;;;;;;;5037811;28;20067;-92
2023/03/16 09:08:35;;;;;;;11.07;4.43;;;;;;;;;;5038322;28;20072;-91
2023/03/16 09:11:02;;;;;;;8.98;4.50;;;;;;;;;;5036944;28;20037;-92
2023/03/16 09:13:29;;;;;;;8.68;3.90;;;;;;;;;;5038481;28;20103;-92
2023/03/16 09:15:55;;;;;;;6.95;3.88;;;;;;;;;;5038341;28;20083;-93
2023/03/16 09:18:23;;;;;;;9.95;3.90;;;;;;;;;;5038096;28;20041;-94
2023/03/16 09:20:49;;;;;;;11.18;5.03;;;;;;;;;;5037255;28;20033;-93
2023/03/16 09:23:15;;;;;;;7.95;4.10;;;;;;;;;;5038241;28;20033;-93
2023/03/16 09:25:41;;;;;;;5.78;3.80;;;;;;;;;;5038097;28;20037;-93
2023/03/16 09:28:07;;;;;;;7.07;4.03;;;;;;;;;;5037060;28;20029;-93
2023/03/16 09:30:33;;;;;;;9.05;4.13;;;;;;;;;;5037093;28;20035;-93
2023/03/16 09:32:59;;;;;;;9.75;4.15;;;;;;;;;;5037675;28;20305;-91
2023/03/16 09:35:25;;;;;;;8.55;3.88;;;;;;;;;;5038152;28;20029;-93
2023/03/16 09:37:52;;;;;;;8.30;3.85;;;;;;;;;;5037441;28;20029;-92
2023/03/16 09:40:37;;;;;;;10.30;4.60;;;;;;;;;;5038248;28;20024;-91
2023/03/16 09:43:18;;;;;;;9.15;4.25;;;;;;;;;;5047124;28;20017;-91
2023/03/16 09:45:45;;;;;;;7.28;4.05;;;;;;;;;;5036609;28;20105;-92
2023/03/16 09:48:13;;;;;;;8.93;4.75;;;;;;;;;;5020852;28;20063;-92
2023/03/16 09:50:41;;;;;;;11.45;4.50;;;;;;;;;;5036813;28;20027;-90
2023/03/16 09:53:28;;;;;;;13.05;5.43;;;;;;;;;;5037706;28;20057;-92
2023/03/16 09:56:14;;;;;;;7.32;3.70;;;;;;;;;;5038059;28;20097;-89
2023/03/16 09:58:40;;;;;;;9.80;4.93;;;;;;;;;;5036526;28;20028;-90
2023/03/16 10:01:25;;;;;;;10.18;4.38;;;;;;;;;;5036665;28;20420;-91
2023/03/16 10:04:09;;;;;;;7.43;3.70;;;;;;;;;;5037793;28;20079;-91
2023/03/16 10:06:44;;;;;;;8.02;4.22;;;;;;;;;;5037490;28;20033;-91
2023/03/16 10:09:16;;;;;;;10.18;4.35;;;;;;;;;;5036714;28;20034;-92
2023/03/16 10:11:45;;;;;;;6.25;4.10;;;;;;;;;;5037533;28;20025;-89
2023/03/16 10:14:16;;;;;;;6.93;3.60;;;;;;;;;;5037450;28;20470;-91
2023/03/16 10:16:55;;;;;;;8.07;4.25;;;;;;;;;;5036540;28;20061;-91
2023/03/16 10:19:45;;;;;;;8.10;4.32;;;;;;;;;;5037335;28;20080;-89
2023/03/16 10:22:17;;;;;;;9.25;4.47;;;;;;;;;;4961795;29;20035;-90
2023/03/16 10:24:43;;;;;;;;;;;;;;;;;;4962046;29;20420;-90
2023/03/16 10:27:16;;;;;;;11.15;4.72;;;;;;;;;;4945563;29;19906;-91
2023/03/16 10:29:42;;;;;;;8.07;4.40;;;;;;;;;;4945383;29;20140;-90
2023/03/16 10:32:13;;;;;;;12.45;6.05;;;;;;;;;;4945182;29;20408;-90
2023/03/16 10:34:39;;;;;;;10.55;5.20;;;;;;;;;;4961514;29;20059;-91
2023/03/16 10:37:08;;;;;;;9.57;4.70;;;;;;;;;;4945485;29;20023;-91
2023/03/16 10:39:41;;;;;;;10.13;4.45;;;;;;;;;;4961294;29;20038;-92
2023/03/16 10:42:14;;;;;;;10.32;4.20;;;;;;;;;;4961051;29;20023;-91
2023/03/16 10:44:40;;;;;;;12.43;4.95;;;;;;;;;;4961242;29;20345;-91
2023/03/16 10:47:07;;;;;;;11.98;5.22;;;;;;;;;;4945126;29;20043;-90
2023/03/16 10:49:40;;;;;;;9.63;4.25;;;;;;;;;;4961234;29;20037;-91
2023/03/16 10:52:20;;;;;;;7.38;4.60;;;;;;;;;;4961419;29;20070;-89
2023/03/16 10:54:51;;;;;;;9.63;4.75;;;;;;;;;;4961127;29;20430;-91
2023/03/16 10:57:20;;;;;;;9.15;4.72;;;;;;;;;;4960803;29;20031;-92
2023/03/16 10:59:50;;;;;;;13.18;4.93;;;;;;;;;;5016554;28;20128;-90
2023/03/16 11:02:22;;;;;;;11.20;5.15;;;;;;;;;;5040843;28;20036;-91
2023/03/16 11:04:48;;;;;;;;;;;;;;;;;;5040365;28;20072;-90
2023/03/16 11:07:18;;;;;;;9.30;4.43;;;;;;;;;;5040796;28;20242;-91
2023/03/16 11:09:46;;;;;;;7.82;4.50;;;;;;;;;;5040588;28;20025;-91
2023/03/16 11:12:21;;;;;;;8.65;4.05;;;;;;;;;;5039857;28;20025;-92
2023/03/16 11:14:48;;;;;;;9.15;4.57;;;;;;;;;;5040370;28;20419;-86
2023/03/16 11:17:50;;;;;;;7.82;4.35;;;;;;;;;;5040380;28;20049;-86
2023/03/16 11:20:27;;;;;;;10.80;4.47;;;;;;;;;;4944462;29;20087;-86
2023/03/16 11:22:53;;;;;;;10.32;4.45;;;;;;;;;;4960509;29;20031;-83
2023/03/16 11:25:29;;;;;;;7.18;4.10;;;;;;;;;;4960129;29;20456;-85
2023/03/16 11:28:10;;;;;;;8.40;4.60;;;;;;;;;;4944484;29;20043;-85
2023/03/16 11:30:40;;;;;;;9.43;4.40;;;;;;;;;;4960444;29;20318;-86
2023/03/16 11:33:12;;;;;;;9.23;3.20;;;;;;;;;;4943161;29;20028;-85
2023/03/16 11:35:39;;;;;;;6.50;3.42;;;;;;;;;;4960373;29;20043;-85
2023/03/16 11:38:11;;;;;;;10.38;4.03;;;;;;;;;;4960089;29;20119;-86
2023/03/16 11:40:44;;;;;;;10.35;3.92;;;;;;;;;;4960119;29;20114;-85
2023/03/16 11:43:13;;;;;;;9.85;3.85;;;;;;;;;;4960039;29;20034;-85
2023/03/16 11:45:57;;;;;;;6.65;3.35;;;;;;;;;;4944045;29;20035;-86
2023/03/16 11:48:35;;;;;;;9.80;3.88;;;;;;;;;;4943876;29;20082;-85
2023/03/16 11:51:02;;;;;;;10.80;3.70;;;;;;;;;;4960031;29;20138;-85
2023/03/16 11:53:28;;;;;;;7.53;4.07;;;;;;;;;;4960179;28;20120;-85
2023/03/16 11:56:24;;;;;;;9.88;4.00;;;;;;;;;;5038800;28;20064;-85
2023/03/16 11:59:08;;;;;;;10.20;3.97;;;;;;;;;;4959763;29;20438;-85
2023/03/16 12:01:37;;;;;;;6.70;3.00;;;;;;;;;;4959822;29;20039;-86
2023/03/16 12:04:03;;;;;;;8.20;3.40;;;;;;;;;;4943873;29;20481;-86
2023/03/16 12:06:32;;;;;;;8.95;2.90;;;;;;;;;;4943744;29;20042;-85
2023/03/16 12:09:17;;;;;;;10.13;2.88;;;;;;;;;;4959661;29;20043;-86
2023/03/16 12:12:03;;;;;;;7.35;3.38;;;;;;;;;;4943692;29;20059;-86
2023/03/16 12:14:32;;;;;;;6.38;3.08;;;;;;;;;;4959535;29;20078;-85
2023/03/16 12:17:14;;;;;;;8.13;3.08;;;;;;;;;;4959106;29;20437;-83
2023/03/16 12:19:40;;;;;;;6.10;2.90;;;;;;;;;;4959186;29;20441;-86
2023/03/16 12:22:21;;;;;;;6.20;3.20;;;;;;;;;;4959580;29;20043;-86
2023/03/16 12:24:47;;;;;;;8.70;3.47;;;;;;;;;;4943510;29;20023;-86
2023/03/16 12:27:25;;;;;;;6.93;3.33;;;;;;;;;;4959436;29;20055;-84
2023/03/16 12:30:14;;;;;;;6.10;2.78;;;;;;;;;;4942786;29;20062;-84
2023/03/16 12:32:52;;;;;;;5.70;3.05;;;;;;;;;;4883538;29;20048;-86
2023/03/16 12:35:32;;;;;;;8.27;3.85;;;;;;;;;;4935838;28;20058;-86
2023/03/16 12:37:58;;;;;;;7.90;3.15;;;;;;;;;;4978533;28;20057;-86
2023/03/16 12:40:33;;;;;;;6.88;3.30;;;;;;;;;;4962174;28;20022;-85
2023/03/16 12:43:00;;;;;;;7.90;3.85;;;;;;;;;;4978354;28;20061;-86
2023/03/16 12:45:26;;;;;;;6.25;2.80;;;;;;;;;;4962049;28;20035;-86
2023/03/16 12:47:58;;;;;;;4.32;2.65;;;;;;;;;;4962523;28;20026;-87
2023/03/16 12:50:24;;;;;;;7.03;2.67;;;;;;;;;;4978668;28;20126;-87
2023/03/16 12:52:52;;;;;;;5.72;2.67;;;;;;;;;;4978296;28;20106;-86
2023/03/16 12:55:18;;;;;;;16.40;7.28;;;;;;;;;;4962336;28;20023;-87
2023/03/16 12:57:45;;;;;;;9.45;6.47;;;;;;;;;;4962164;28;20122;-86
2023/03/16 13:00:12;;;;;;;12.90;4.18;;;;;;;;;;4978235;28;20398;-87
2023/03/16 13:02:42;;;;;;;9.18;2.97;;;;;;;;;;4962361;28;20031;-86
2023/03/16 13:05:10;;;;;;;5.63;3.10;;;;;;;;;;4962078;28;20035;-86
2023/03/16 13:07:38;;;;;;;7.35;3.05;;;;;;;;;;4962161;28;20034;-87
2023/03/16 13:10:11;;;;;;;6.45;3.08;;;;;;;;;;5019410;28;20343;-87
2023/03/16 13:12:40;;;;;;;7.72;3.05;;;;;;;;;;5037172;28;20037;-87
2023/03/16 13:15:19;;;;;;;8.57;3.60;;;;;;;;;;5038236;28;20155;-85
2023/03/16 13:17:46;;;;;;;6.85;3.70;;;;;;;;;;5036774;28;20038;-86
2023/03/16 13:20:12;;;;;;;7.13;3.42;;;;;;;;;;5038198;28;20400;-86
2023/03/16 13:22:48;;;;;;;10.85;6.20;;;;;;;;;;5038462;28;20033;-87
2023/03/16 13:25:21;;;;;;;18.75;8.88;;;;;;;;;;5037947;28;20017;-87
2023/03/16 13:27:49;;;;;;;6.00;3.30;;;;;;;;;;5038279;28;20045;-87
2023/03/16 13:30:29;;;;;;;7.70;3.50;;;;;;;;;;5038251;28;20105;-86
2023/03/16 13:32:56;;;;;;;5.50;3.60;;;;;;;;;;5037924;28;20026;-87
2023/03/16 13:35:25;;;;;;;8.00;3.78;;;;;;;;;;5036853;28;20029;-87
2023/03/16 13:37:53;;;;;;;7.38;4.20;;;;;;;;;;5037640;28;20053;-87
2023/03/16 13:40:26;;;;;;;8.85;4.68;;;;;;;;;;5037814;28;20021;-87
2023/03/16 13:42:55;;;;;;;4.88;3.38;;;;;;;;;;5037942;28;20022;-87
2023/03/16 13:45:37;;;;;;;9.05;3.35;;;;;;;;;;5037067;28;20116;-86
2023/03/16 13:48:04;;;;;;;9.65;3.85;;;;;;;;;;5037733;28;20026;-87
2023/03/16 13:50:34;;;;;;;4.63;3.20;;;;;;;;;;5037687;28;20108;-87
2023/03/16 13:53:02;;;;;;;7.57;3.83;;;;;;;;;;5037121;28;20076;-86
2023/03/16 13:55:31;;;;;;;6.68;2.75;;;;;;;;;;5037169;28;20056;-86
2023/03/16 13:57:58;;;;;;;4.35;2.60;;;;;;;;;;5037694;28;20355;-86
2023/03/16 14:00:25;;;;;;;7.93;3.42;;;;;;;;;;5037540;28;20312;-87
2023/03/16 14:02:56;;;;;;;7.22;3.65;;;;;;;;;;5036765;28;20308;-86
2023/03/16 14:05:26;;;;;;;10.70;3.55;;;;;;;;;;5037595;28;20025;-87
2023/03/16 14:07:53;;;;;;;8.25;3.90;;;;;;;;;;5036510;28;20073;-86
2023/03/16 14:10:20;;;;;;;11.02;4.03;;;;;;;;;;5037493;28;20033;-87
2023/03/16 14:12:52;;;;;;;9.25;2.83;;;;;;;;;;5037391;28;20056;-86
2023/03/16 14:15:18;;;;;;;8.75;2.67;;;;;;;;;;5037294;28;20311;-85
2023/03/16 14:17:45;;;;;;;5.97;2.38;;;;;;;;;;5037134;28;20025;-86
2023/03/16 14:20:18;;;;;;;7.28;3.60;;;;;;;;;;5037407;28;20021;-86
2023/03/16 14:22:44;;;;;;;4.28;2.50;;;;;;;;;;5037451;28;20021;-85
2023/03/16 14:25:12;;;;;;;8.18;2.70;;;;;;;;;;5037434;28;20017;-86
2023/03/16 14:27:39;;;;;;;8.93;3.83;;;;;;;;;;5036314;28;20068;-86
2023/03/16 14:30:31;;;;;;;8.65;3.78;;;;;;;;;;5037291;28;20029;-86
2023/03/16 14:33:05;;;;;;;18.63;3.30;;;;;;;;;;5033582;28;20374;-86
2023/03/16 14:35:39;;;;;;;7.75;2.70;;;;;;;;;;5037242;28;20034;-85
2023/03/16 14:38:42;;;;;;;12.45;4.40;;;;;;;;;;5037570;28;20418;-86
2023/03/16 14:41:11;;;;;;;14.07;6.80;;;;;;;;;;4957560;29;20421;-86
2023/03/16 14:43:40;;;;;;;10.77;4.57;;;;;;;;;;4940929;29;20035;-86
2023/03/16 14:46:07;;;;;;;7.50;3.33;;;;;;;;;;4941070;29;20122;-85
2023/03/16 14:48:34;;;;;;;6.32;3.38;;;;;;;;;;4941076;29;20035;-86
2023/03/16 14:51:01;;;;;;;8.05;3.25;;;;;;;;;;4954631;29;20111;-86
2023/03/16 14:53:28;;;;;;;6.38;3.50;;;;;;;;;;4942479;29;20023;-85
2023/03/16 14:55:55;;;;;;;5.20;2.83;;;;;;;;;;4941414;29;20131;-85
2023/03/16 14:58:21;;;;;;;5.68;2.92;;;;;;;;;;4941280;29;20031;-86
2023/03/16 15:00:52;;;;;;;4.28;3.00;;;;;;;;;;4957321;29;20031;-85
2023/03/16 15:03:20;;;;;;;8.00;3.17;;;;;;;;;;4957410;29;20080;-85
2023/03/16 15:05:48;;;;;;;5.20;2.58;;;;;;;;;;4957291;28;20028;-85
2023/03/16 15:08:20;;;;;;;19.95;5.43;;;;;;;;;;4960798;29;20083;-85
2023/03/16 15:10:46;;;;;;;5.72;2.40;;;;;;;;;;4960870;29;20448;-85
2023/03/16 15:13:16;;;;;;;6.07;2.65;;;;;;;;;;4960804;29;20070;-85
2023/03/16 15:15:42;;;;;;;5.28;2.90;;;;;;;;;;5021980;28;20423;-86
2023/03/16 15:18:08;;;;;;;6.05;2.53;;;;;;;;;;5040290;28;20132;-85
2023/03/16 15:20:40;;;;;;;3.75;2.53;;;;;;;;;;5040116;28;20022;-85
2023/03/16 15:23:09;;;;;;;6.25;3.15;;;;;;;;;;5039089;28;20037;-85
2023/03/16 15:25:36;;;;;;;8.40;2.90;;;;;;;;;;5040432;28;20030;-85
2023/03/16 15:28:04;;;;;;;7.10;3.42;;;;;;;;;;5040529;28;20038;-85
2023/03/16 15:30:30;;;;;;;7.82;2.95;;;;;;;;;;5040312;28;20096;-85
2023/03/16 15:32:56;;;;;;;8.50;3.42;;;;;;;;;;5040341;28;20026;-85
2023/03/16 15:35:22;;;;;;;9.25;3.33;;;;;;;;;;5038617;28;20037;-84
2023/03/16 15:37:49;;;;;;;6.32;2.72;;;;;;;;;;5039148;28;20031;-85